Time;durP1;ratioP1;P1;durP2;ratioP2;P2;SDS_P1;SDS_P2;PMS_P1;PMS_P2;Temp;Humidity;BMP_temperature;BMP_pressure;BME280_temperature;BME280_humidity;BME280_pressure;Samples;Min_cycle;Max_cycle;Signal;HPM_P1;HPM_P2
2022/08/22 00:02:09;;;;;;;4.60;2.42;;;;;;;;;;10345288;28;20217;-79
2022/08/22 00:07:49;;;;;;;3.22;2.03;;;;;;;;;;10318969;28;20373;-79
2022/08/22 00:13:18;;;;;;;5.45;1.80;;;;;;;;;;10318804;28;20552;-79
2022/08/22 00:18:45;;;;;;;2.83;1.73;;;;;;;;;;10319012;28;20210;-79
2022/08/22 00:24:25;;;;;;;1.70;1.25;;;;;;;;;;10318432;28;20293;-78
2022/08/22 00:29:50;;;;;;;2.83;1.35;;;;;;;;;;10332225;28;20507;-78
2022/08/22 00:35:11;;;;;;;3.35;1.52;;;;;;;;;;10398609;28;20201;-78
2022/08/22 00:40:41;;;;;;;2.63;1.15;;;;;;;;;;10384005;28;20199;-78
2022/08/22 00:46:21;;;;;;;1.90;1.13;;;;;;;;;;10398377;28;20283;-81
2022/08/22 00:52:09;;;;;;;3.75;1.55;;;;;;;;;;10393519;28;20189;-80
2022/08/22 00:57:50;;;;;;;4.93;1.38;;;;;;;;;;10351044;28;20204;-78
2022/08/22 01:03:30;;;;;;;1.83;1.50;;;;;;;;;;10351740;28;20297;-80
2022/08/22 01:08:57;;;;;;;1.30;1.20;;;;;;;;;;10301926;28;20229;-78
2022/08/22 01:14:37;;;;;;;2.50;1.30;;;;;;;;;;10315528;28;20231;-81
2022/08/22 01:20:02;;;;;;;1.30;1.17;;;;;;;;;;10316388;28;20265;-77
2022/08/22 01:25:33;;;;;;;2.55;1.40;;;;;;;;;;10314969;28;20474;-76
2022/08/22 01:31:00;;;;;;;1.42;1.33;;;;;;;;;;10348535;28;20404;-78
2022/08/22 01:47:38;;;;;;;3.80;1.17;;;;;;;;;;10382039;28;20193;-77
2022/08/22 01:53:21;;;;;;;1.95;1.30;;;;;;;;;;10356318;28;20203;-77
2022/08/22 01:59:09;;;;;;;1.75;1.48;;;17.00;99.90;;;;;;10153633;29;20216;-77
2022/08/22 02:04:34;;;;;;;1.73;1.20;;;;;;;;;;10169193;29;20455;-76
2022/08/22 02:10:04;;;;;;;3.72;1.40;;;;;;;;;;10192523;29;20889;-76
2022/08/22 02:15:41;;;;;;;2.08;1.42;;;16.80;99.90;;;;;;10192391;29;20216;-78
2022/08/22 02:21:14;;;;;;;1.40;1.20;;;16.80;99.90;;;;;;10192701;29;20516;-78
2022/08/22 02:26:45;;;;;;;1.70;1.27;;;16.80;99.90;;;;;;10192633;29;20322;-77
2022/08/22 02:32:19;;;;;;;3.65;1.30;;;;;;;;;;10217395;28;20232;-79
2022/08/22 02:37:41;;;;;;;3.92;1.55;;;;;;;;;;10386313;28;20499;-77
2022/08/22 02:43:13;;;;;;;4.18;2.13;;;;;;;;;;10388422;28;20310;-80
2022/08/22 02:48:52;;;;;;;3.35;2.03;;;;;;;;;;10388283;28;20196;-77
2022/08/22 02:54:29;;;;;;;2.67;1.92;;;16.80;99.90;;;;;;10364816;28;20201;-77
2022/08/22 03:00:15;;;;;;;2.40;1.20;;;16.90;99.90;;;;;;10362034;28;20264;-76
2022/08/22 03:05:37;;;;;;;4.22;1.33;;;16.70;99.90;;;;;;10332048;28;20461;-79
2022/08/22 03:11:28;;;;;;;2.33;1.40;;;16.60;99.90;;;;;;10361660;28;20196;-81
2022/08/22 03:17:08;;;;;;;4.45;2.10;;;;;;;;;;10361161;28;20216;-81
2022/08/22 03:22:44;;;;;;;5.32;2.58;;;16.70;99.90;;;;;;10361240;28;20442;-77
2022/08/22 03:28:22;;;;;;;2.65;2.00;;;16.70;99.90;;;;;;10360078;28;20195;-78
2022/08/22 03:34:04;;;;;;;1.80;1.42;;;16.80;99.90;;;;;;10398722;28;20542;-77
2022/08/22 03:39:44;;;;;;;4.82;2.65;;;;;;;;;;10401412;28;20196;-76
2022/08/22 03:45:14;;;;;;;4.90;2.72;;;;;;;;;;10385817;28;20236;-78
2022/08/22 03:50:48;;;;;;;5.18;3.58;;;;;;;;;;10383345;28;20232;-76
2022/08/22 03:56:37;;;;;;;6.15;3.83;;;17.00;99.90;;;;;;10332498;28;20211;-76
2022/08/22 04:02:17;;;;;;;4.43;3.25;;;16.90;99.90;;;;;;10358223;28;20232;-76
2022/08/22 04:07:58;;;;;;;3.75;2.63;;;17.00;99.90;;;;;;10319159;28;20216;-77
2022/08/22 04:13:26;;;;;;;5.75;2.50;;;17.10;99.90;;;;;;10301400;28;20200;-76
2022/08/22 04:18:59;;;;;;;3.47;2.70;;;17.10;99.90;;;;;;10318836;28;20520;-76
2022/08/22 04:24:53;;;;;;;7.60;5.72;;;17.20;99.90;;;;;;10318643;28;20233;-76
2022/08/22 04:30:31;;;;;;;4.90;4.28;;;17.20;99.90;;;;;;10337285;28;20286;-76
2022/08/22 04:36:14;;;;;;;6.13;4.30;;;17.20;99.90;;;;;;10398917;28;20413;-76
2022/08/22 04:41:51;;;;;;;4.90;4.18;;;17.30;99.90;;;;;;10398901;28;20365;-76
2022/08/22 04:47:49;;;;;;;4.75;3.95;;;17.30;99.90;;;;;;10384034;28;20272;-76
2022/08/22 04:53:35;;;;;;;6.43;3.08;;;17.40;99.90;;;;;;10370377;28;20285;-76
2022/08/22 04:59:02;;;;;;;3.55;2.13;;;17.50;99.90;;;;;;10315539;28;20194;-76
2022/08/22 05:04:30;;;;;;;4.53;2.38;;;17.50;99.90;;;;;;10332206;28;20524;-77
2022/08/22 05:10:00;;;;;;;3.83;2.42;;;17.60;99.90;;;;;;10357027;28;20424;-76
2022/08/22 05:15:33;;;;;;;5.53;2.67;;;17.60;99.90;;;;;;10356743;28;20271;-76
2022/08/22 05:20:59;;;;;;;4.15;2.30;;;17.70;99.90;;;;;;10356768;28;20794;-78
2022/08/22 05:26:21;;;;;;;2.70;2.17;;;17.80;99.90;;;;;;10341956;28;20285;-76
2022/08/22 05:31:48;;;;;;;3.72;2.35;;;17.90;99.90;;;;;;10377237;28;20253;-77
2022/08/22 05:37:17;;;;;;;6.32;2.50;;;18.00;99.90;;;;;;10382234;28;20243;-77
2022/08/22 05:42:40;;;;;;;4.30;2.38;;;18.20;99.90;;;;;;10396355;28;20264;-76
2022/08/22 05:48:24;;;;;;;4.05;2.50;;;18.40;99.90;;;;;;10396225;28;20197;-76
2022/08/22 05:53:50;;;;;;;6.32;2.70;;;18.70;99.90;;;;;;10361990;28;20519;-77
2022/08/22 05:59:17;;;;;;;3.40;2.53;;;18.90;99.90;;;;;;10355494;28;20225;-76
2022/08/22 06:04:50;;;;;;;6.57;2.67;;;19.10;99.90;;;;;;10336530;28;20232;-76
2022/08/22 06:10:58;;;;;;;4.68;2.40;;;19.30;99.90;;;;;;10314724;28;20195;-76
2022/08/22 06:16:29;;;;;;;5.40;2.60;;;19.50;99.90;;;;;;10308420;28;20213;-77
2022/08/22 06:21:53;;;;;;;5.07;2.70;;;19.70;99.90;;;;;;10314945;28;20199;-76
2022/08/22 06:27:16;;;;;;;8.50;2.58;;;;;;;;;;10313514;28;20228;-76
2022/08/22 06:32:41;;;;;;;4.00;1.35;;;;;;;;;;10366793;28;20248;-77
2022/08/22 06:38:02;;;;;;;5.40;2.25;;;20.00;99.90;;;;;;10380439;28;20264;-76
2022/08/22 06:43:25;;;;;;;7.93;2.63;;;;;;;;;;10394920;28;20220;-76
2022/08/22 06:48:47;;;;;;;5.22;2.72;;;;;;;;;;10367240;28;20200;-78
2022/08/22 06:54:17;;;;;;;4.15;2.15;;;21.00;99.90;;;;;;10357852;28;20198;-77
2022/08/22 06:59:38;;;;;;;4.43;1.85;;;21.60;99.90;;;;;;10354501;28;20194;-77
2022/08/22 07:05:00;;;;;;;9.52;2.42;;;22.00;99.90;;;;;;10334221;28;20449;-80
2022/08/22 07:10:23;;;;;;;7.00;2.80;;;22.50;99.90;;;;;;10313099;28;20191;-76
2022/08/22 07:15:54;;;;;;;6.68;2.90;;;22.70;99.90;;;;;;10314021;28;20246;-77
2022/08/22 07:21:43;;;;;;;7.20;3.65;;;22.50;99.90;;;;;;10315010;28;20422;-77
2022/08/22 07:27:17;;;;;;;10.40;4.55;;;22.70;99.90;;;;;;10320773;28;20246;-80
2022/08/22 07:32:44;;;;;;;12.38;3.17;;;22.70;99.90;;;;;;10375776;28;20256;-80
2022/08/22 07:38:28;;;;;;;7.40;3.53;;;22.50;99.90;;;;;;10400958;28;20197;-80
2022/08/22 07:44:15;;;;;;;9.68;5.15;;;22.50;99.90;;;;;;10398062;28;20535;-80
2022/08/22 07:49:45;;;;;;;4.15;1.90;;;22.40;99.90;;;;;;10400617;28;20204;-77
2022/08/22 07:55:27;;;;;;;5.53;1.80;;;22.40;99.90;;;;;;10355169;28;20202;-77
2022/08/22 08:00:50;;;;;;;3.97;1.63;;;23.20;99.90;;;;;;10363359;28;20198;-77
2022/08/22 08:06:12;;;;;;;6.55;2.25;;;24.10;99.90;;;;;;10332314;28;20222;-77
2022/08/22 08:11:38;;;;;;;3.40;1.75;;;24.80;99.90;;;;;;10318164;28;20190;-78
2022/08/22 08:17:09;;;;;;;3.50;1.65;;;25.20;99.70;;;;;;10333740;28;20277;-77
2022/08/22 08:22:31;;;;;;;3.92;1.60;;;25.90;96.40;;;;;;10318451;28;20195;-79
2022/08/22 08:33:38;;;;;;;8.30;1.80;;;26.00;94.00;;;;;;10392049;28;20485;-77
2022/08/22 08:39:12;;;;;;;3.80;1.80;;;25.50;95.20;;;;;;10398865;28;20499;-78
2022/08/22 08:44:53;;;;;;;6.18;2.97;;;25.40;95.60;;;;;;10398606;28;20267;-79
2022/08/22 08:50:18;;;;;;;4.43;1.50;;;25.20;94.60;;;;;;10383022;28;20221;-80
2022/08/22 08:55:55;;;;;;;3.58;1.70;;;25.10;93.60;;;;;;10333722;28;20551;-80
2022/08/22 09:01:37;;;;;;;6.63;2.40;;;24.90;94.80;;;;;;10343169;28;20202;-79
2022/08/22 09:07:17;;;;;;;4.93;1.80;;;24.80;94.30;;;;;;10320746;28;20225;-78
2022/08/22 09:13:02;;;;;;;6.78;1.73;;;25.00;94.90;;;;;;10316635;28;20482;-77
2022/08/22 09:18:44;;;;;;;4.57;1.52;;;25.70;93.40;;;;;;10331246;28;20230;-79
2022/08/22 09:24:24;;;;;;;4.05;1.88;;;26.20;89.80;;;;;;10316235;28;20226;-78
2022/08/22 09:30:03;;;;;;;6.63;2.25;;;26.30;87.80;;;;;;10329584;28;20272;-80
2022/08/22 09:35:37;;;;;;;4.75;1.70;;;27.00;84.30;;;;;;10378968;28;20209;-79
2022/08/22 09:41:24;;;;;;;2.58;1.27;;;27.50;75.70;;;;;;10381802;28;20194;-78
2022/08/22 09:47:01;;;;;;;4.65;1.63;;;27.20;69.10;;;;;;10395924;28;20451;-77
2022/08/22 09:52:42;;;;;;;2.05;1.58;;;27.20;69.40;;;;;;10381046;28;20198;-78
2022/08/22 09:58:26;;;;;;;5.43;1.55;;;26.80;70.50;;;;;;10352089;28;20202;-77
2022/08/22 10:04:13;;;;;;;3.30;1.92;;;26.40;71.80;;;;;;10330344;28;20230;-78
2022/08/22 10:09:48;;;;;;;3.70;2.03;;;26.50;73.80;;;;;;10314406;28;20195;-78
2022/08/22 10:15:34;;;;;;;3.47;1.77;;;26.00;76.80;;;;;;10314866;28;20365;-77
2022/08/22 10:21:12;;;;;;;2.15;1.60;;;25.70;82.80;;;;;;10329738;28;20294;-77
2022/08/22 10:26:38;;;;;;;4.85;1.90;;;25.00;90.50;;;;;;10314569;28;20543;-78
2022/08/22 10:32:19;;;;;;;2.53;1.30;;;24.80;91.90;;;;;;10364338;28;20248;-79
2022/08/22 10:37:57;;;;;;;2.33;1.63;;;24.20;92.80;;;;;;10395494;28;20193;-78
2022/08/22 10:43:44;;;;;;;4.32;1.80;;;24.10;93.80;;;;;;10377709;28;20212;-79
2022/08/22 10:49:31;;;;;;;4.30;1.77;;;24.00;95.20;;;;;;10377463;28;20201;-78
2022/08/22 10:55:02;;;;;;;3.90;1.77;;;23.80;94.90;;;;;;10323970;28;20272;-78
2022/08/22 11:00:41;;;;;;;3.72;1.60;;;23.90;95.40;;;;;;10361852;28;20193;-78
2022/08/22 11:06:22;;;;;;;2.05;1.42;;;24.10;95.70;;;;;;10306671;28;20230;-81
2022/08/22 11:11:53;;;;;;;11.38;2.55;;;24.30;96.20;;;;;;10321213;28;20195;-78
2022/08/22 11:17:32;;;;;;;11.77;6.22;;;24.60;96.00;;;;;;10320767;28;20282;-78
2022/08/22 11:23:15;;;;;;;14.18;6.57;;;25.00;96.10;;;;;;10320122;28;20489;-82
2022/08/22 11:29:06;;;;;;;9.80;4.85;;;25.40;95.10;;;;;;10320597;28;20190;-79
2022/08/22 11:34:52;;;;;;;11.55;3.70;;;25.60;94.90;;;;;;10295453;28;20328;-82
2022/08/22 11:40:16;;;;;;;4.18;2.65;;;25.60;94.20;;;;;;10280422;29;20199;-77
2022/08/22 11:46:00;;;;;;;11.10;3.55;;;25.40;95.50;;;;;;10280114;29;20536;-77
2022/08/22 11:51:43;;;;;;;8.43;3.15;;;25.20;94.10;;;;;;10280276;29;20262;-78
2022/08/22 11:57:17;;;;;;;4.80;2.60;;;25.00;93.70;;;;;;10318406;28;20213;-77
2022/08/22 12:02:57;;;;;;;5.93;2.00;;;24.70;93.40;;;;;;10317362;28;20199;-78
2022/08/22 12:08:49;;;;;;;4.38;1.83;;;24.90;90.70;;;;;;10277684;28;20353;-78
2022/08/22 12:14:30;;;;;;;4.05;1.52;;;25.00;83.00;;;;;;10278062;28;20267;-78
2022/08/22 12:20:28;;;;;;;2.55;1.63;;;24.90;86.10;;;;;;10293996;28;20274;-78
2022/08/22 12:25:55;;;;;;;2.05;1.33;;;24.70;87.20;;;;;;10278338;29;20230;-78
2022/08/22 12:31:35;;;;;;;2.30;1.27;;;24.50;88.80;;;;;;10328695;28;20244;-77
2022/08/22 12:37:19;;;;;;;2.20;1.30;;;24.50;90.20;;;;;;10384301;28;20208;-77
2022/08/22 12:42:53;;;;;;;2.63;1.63;;;24.40;88.80;;;;;;10398710;28;20203;-77
2022/08/22 12:48:31;;;;;;;3.58;1.60;;;24.40;90.70;;;;;;10384113;28;20232;-78
2022/08/22 12:54:19;;;;;;;5.85;1.75;;;24.40;91.10;;;;;;10363351;28;20552;-77
2022/08/22 12:59:51;;;;;;;3.25;1.23;;;24.50;90.00;;;;;;10343203;28;20264;-77
2022/08/22 13:05:25;;;;;;;3.83;1.77;;;24.40;89.40;;;;;;10335409;28;20275;-78
2022/08/22 13:11:00;;;;;;;2.33;1.40;;;24.20;90.10;;;;;;10316901;28;20191;-78
2022/08/22 13:16:23;;;;;;;4.13;1.60;;;24.00;90.70;;;;;;10316811;28;20203;-78
2022/08/22 13:22:03;;;;;;;1.92;1.30;;;23.80;93.00;;;;;;10315045;28;20218;-78
2022/08/22 13:27:30;;;;;;;2.20;1.48;;;23.80;93.40;;;;;;10316228;28;20289;-78
2022/08/22 13:33:00;;;;;;;2.70;1.30;;;23.70;93.70;;;;;;10373309;28;20241;-77
2022/08/22 13:38:21;;;;;;;2.72;1.60;;;23.60;94.50;;;;;;10396721;28;20220;-78
2022/08/22 13:44:04;;;;;;;2.17;1.45;;;23.50;95.10;;;;;;10381754;28;20219;-78
2022/08/22 13:49:35;;;;;;;4.20;1.70;;;23.40;95.70;;;;;;10382157;28;20193;-78
2022/08/22 13:55:00;;;;;;;2.08;1.60;;;23.40;96.00;;;;;;10352254;28;20385;-77
2022/08/22 14:00:40;;;;;;;3.45;2.00;;;23.40;96.70;;;;;;10340855;28;20453;-78
2022/08/22 14:06:19;;;;;;;3.65;2.05;;;23.30;97.60;;;;;;10329940;28;20282;-81
2022/08/22 14:11:52;;;;;;;4.47;1.63;;;23.30;98.40;;;;;;10329932;28;20386;-77
2022/08/22 14:17:21;;;;;;;3.55;1.90;;;23.50;99.50;;;;;;10329955;28;20206;-79
2022/08/22 14:23:13;;;;;;;2.40;1.60;;;23.30;98.90;;;;;;10314935;28;20262;-79
2022/08/22 14:28:35;;;;;;;4.05;1.60;;;23.30;98.90;;;;;;10192452;29;20503;-81
2022/08/22 14:34:03;;;;;;;3.08;1.75;;;23.20;99.10;;;;;;10238643;29;20577;-79
2022/08/22 14:39:24;;;;;;;2.45;1.65;;;23.20;97.90;;;;;;10225725;29;20216;-80
2022/08/22 14:45:10;;;;;;;2.42;1.70;;;23.20;97.30;;;;;;10239215;29;20245;-78
2022/08/22 14:50:50;;;;;;;2.88;1.60;;;;;;;;;;10238958;29;20498;-78
2022/08/22 14:56:17;;;;;;;3.10;1.60;;;23.10;99.90;;;;;;10201033;29;20216;-82
2022/08/22 15:02:00;;;;;;;3.65;1.83;;;22.80;99.90;;;;;;10200500;28;20212;-81
2022/08/22 15:07:25;;;;;;;2.75;1.50;;;22.60;99.90;;;;;;10336237;28;20229;-78
2022/08/22 15:12:57;;;;;;;2.88;1.65;;;22.60;99.90;;;;;;10322591;28;20198;-79
2022/08/22 15:18:27;;;;;;;3.40;1.58;;;22.50;99.90;;;;;;10321855;28;20197;-78
2022/08/22 15:23:51;;;;;;;3.08;1.60;;;22.60;99.90;;;;;;10320745;28;20195;-78
2022/08/22 15:29:27;;;;;;;2.92;1.85;;;22.50;99.90;;;;;;10325723;28;20264;-80
2022/08/22 15:34:51;;;;;;;3.53;2.05;;;22.60;99.90;;;;;;10401431;28;20212;-77
2022/08/22 15:40:36;;;;;;;2.25;1.45;;;22.50;99.90;;;;;;10401357;28;20189;-78
2022/08/22 15:46:26;;;;;;;3.90;1.52;;;22.20;98.30;;;;;;10400690;28;20400;-79
2022/08/22 15:51:53;;;;;;;3.03;1.80;;;22.00;99.90;;;;;;10380399;28;20206;-79
2022/08/22 15:57:22;;;;;;;5.38;2.40;;;22.00;99.90;;;;;;10351596;28;20206;-81
2022/08/22 16:02:58;;;;;;;6.80;2.63;;;22.00;99.90;;;;;;10358344;28;20205;-81
2022/08/22 16:08:34;;;;;;;4.93;2.60;;;22.00;99.90;;;;;;10319026;28;20221;-79
2022/08/22 16:14:19;;;;;;;6.70;3.10;;;22.00;99.90;;;;;;10319341;28;20202;-80
2022/08/22 16:19:40;;;;;;;2.58;1.60;;;21.90;99.90;;;;;;10317973;28;20194;-79
2022/08/22 16:25:05;;;;;;;3.20;1.95;;;21.80;99.90;;;;;;10318674;28;20225;-81
2022/08/22 16:30:33;;;;;;;5.53;2.45;;;21.80;99.90;;;;;;10342205;28;20225;-80
2022/08/22 16:36:13;;;;;;;3.75;1.80;;;21.80;99.90;;;;;;10399010;28;20225;-79
2022/08/22 16:41:42;;;;;;;4.47;2.30;;;21.80;99.90;;;;;;10367499;28;20208;-80
2022/08/22 16:47:15;;;;;;;1.80;1.55;;;21.80;99.90;;;;;;10383632;28;20259;-81
2022/08/22 16:52:37;;;;;;;3.47;1.92;;;21.80;99.90;;;;;;10361455;28;20271;-81
2022/08/22 16:58:35;;;;;;;4.47;2.05;;;21.70;99.90;;;;;;10354771;28;20197;-81
2022/08/22 17:04:46;;;;;;;3.65;1.85;;;21.70;99.90;;;;;;10343765;28;20210;-81
2022/08/22 17:10:33;;;;;;;4.43;1.92;;;21.60;99.90;;;;;;10316860;28;20195;-80
2022/08/22 17:16:04;;;;;;;3.55;1.92;;;21.60;99.90;;;;;;10331365;28;20379;-78
2022/08/22 17:21:55;;;;;;;3.83;2.30;;;21.60;99.90;;;;;;10556378;28;20567;-78
2022/08/22 17:27:35;;;;;;;6.25;3.13;;;21.50;99.90;;;;;;10540660;28;20202;-80
2022/08/22 17:33:00;;;;;;;7.70;4.70;;;21.40;99.90;;;;;;10554263;28;20199;-79
2022/08/22 17:38:39;;;;;;;7.43;4.50;;;21.30;99.90;;;;;;10554228;28;20244;-79
2022/08/22 17:44:07;;;;;;;6.53;3.13;;;21.20;99.90;;;;;;10554280;28;20206;-80
2022/08/22 17:49:40;;;;;;;5.85;2.88;;;21.10;99.90;;;;;;10554869;28;20194;-82
2022/08/22 17:55:20;;;;;;;4.03;2.67;;;21.00;99.90;;;;;;10554676;28;20191;-80
2022/08/22 18:00:54;;;;;;;4.32;3.05;;;20.90;99.90;;;;;;10553550;28;20285;-78
2022/08/22 18:06:26;;;;;;;5.93;3.90;;;20.90;99.90;;;;;;10584817;28;20194;-81
2022/08/22 18:12:23;;;;;;;5.53;3.70;;;20.70;99.90;;;;;;10596464;28;20193;-79
2022/08/22 18:18:09;;;;;;;7.43;4.07;;;;;;;;;;10591813;28;20237;-80
2022/08/22 18:23:43;;;;;;;11.63;6.35;;;20.50;99.90;;;;;;10595074;28;20243;-82
2022/08/22 18:29:15;;;;;;;10.60;6.28;;;20.50;99.90;;;;;;10586780;28;20493;-81
2022/08/22 18:34:43;;;;;;;7.90;4.63;;;20.30;99.90;;;;;;10524320;28;20210;-81
2022/08/22 18:40:25;;;;;;;10.38;5.35;;;20.30;99.90;;;;;;10525013;28;20227;-81
2022/08/22 18:45:47;;;;;;;7.30;4.45;;;20.20;99.90;;;;;;10524715;28;20224;-81
2022/08/22 18:51:34;;;;;;;7.38;3.72;;;20.20;99.90;;;;;;10523970;28;20191;-80
2022/08/22 18:57:34;;;;;;;6.35;3.28;;;20.10;99.90;;;;;;10500829;28;20283;-81
2022/08/22 19:03:28;;;;;;;3.40;2.65;;;20.00;99.90;;;;;;10489301;28;20191;-80
2022/08/22 19:09:02;;;;;;;4.72;3.22;;;19.80;99.90;;;;;;10565109;28;20235;-80
2022/08/22 19:14:42;;;;;;;5.35;3.33;;;19.80;99.90;;;;;;10564459;28;20199;-80
2022/08/22 19:26:32;;;;;;;4.60;3.10;;;19.70;99.90;;;;;;10522319;28;20195;-80
2022/08/22 19:31:58;;;;;;;6.22;3.20;;;19.70;99.90;;;;;;10522908;28;20244;-78
2022/08/22 19:37:19;;;;;;;3.28;2.53;;;19.70;99.90;;;;;;10522028;28;20383;-79
2022/08/22 19:42:42;;;;;;;5.93;4.03;;;19.70;99.90;;;;;;10521617;28;20473;-81
2022/08/22 19:48:10;;;;;;;5.68;3.80;;;19.80;99.90;;;;;;10522681;28;20237;-80
2022/08/22 19:54:11;;;;;;;6.63;4.63;;;19.70;99.90;;;;;;10522042;28;20482;-78
2022/08/22 20:00:06;;;;;;;5.05;3.90;;;19.70;99.90;;;;;;10520414;28;20233;-77
2022/08/22 20:05:48;;;;;;;4.45;3.58;;;19.70;99.90;;;;;;10546274;28;20505;-77
2022/08/22 20:11:22;;;;;;;5.15;3.65;;;19.70;99.90;;;;;;10533901;28;20452;-77
2022/08/22 20:17:12;;;;;;;5.18;4.10;;;19.70;99.90;;;;;;10561868;28;20199;-77
2022/08/22 20:22:48;;;;;;;8.52;4.93;;;19.30;99.90;;;;;;10539409;28;20191;-76
2022/08/22 20:28:36;;;;;;;7.45;3.47;;;19.60;99.90;;;;;;10519812;28;20191;-77
2022/08/22 20:34:03;;;;;;;4.75;2.97;;;19.60;99.90;;;;;;10520525;28;20191;-77
2022/08/22 20:39:33;;;;;;;6.38;2.88;;;19.60;99.90;;;;;;10520462;28;20249;-76
2022/08/22 20:44:56;;;;;;;5.70;3.17;;;19.60;99.90;;;;;;10520435;28;20192;-76
2022/08/22 20:50:23;;;;;;;5.88;3.20;;;19.60;99.90;;;;;;10505222;28;20202;-76
2022/08/22 20:55:55;;;;;;;5.80;2.95;;;19.60;99.90;;;;;;10519484;28;20199;-77
2022/08/22 21:01:17;;;;;;;3.03;2.28;;;19.60;99.90;;;;;;10477644;28;20538;-77
2022/08/22 21:06:39;;;;;;;4.57;2.72;;;19.60;99.90;;;;;;10547022;28;20195;-77
2022/08/22 21:12:02;;;;;;;4.03;2.13;;;19.60;99.90;;;;;;10560197;28;20208;-76
2022/08/22 21:17:28;;;;;;;6.53;2.38;;;19.60;99.90;;;;;;10560407;28;20241;-76
2022/08/22 21:22:50;;;;;;;4.20;2.30;;;19.60;99.90;;;;;;10537024;28;20202;-77
2022/08/22 21:28:23;;;;;;;5.68;2.70;;;19.60;99.90;;;;;;10504359;28;20206;-77
2022/08/22 21:33:46;;;;;;;4.03;2.30;;;19.60;99.90;;;;;;10518525;28;20199;-76
2022/08/22 21:39:29;;;;;;;8.38;2.50;;;19.50;99.90;;;;;;10518968;28;20295;-77
2022/08/22 21:44:58;;;;;;;3.15;2.35;;;19.50;99.90;;;;;;10519142;28;20194;-78
2022/08/22 21:50:19;;;;;;;3.17;2.20;;;19.50;99.90;;;;;;10517968;28;20490;-78
2022/08/22 21:55:43;;;;;;;3.92;2.15;;;19.50;99.90;;;;;;10517564;28;20187;-81
2022/08/22 22:01:26;;;;;;;6.88;2.50;;;19.50;99.90;;;;;;10518652;28;20272;-79
2022/08/22 22:06:50;;;;;;;7.95;2.35;;;19.50;99.90;;;;;;10544591;28;20198;-79
2022/08/22 22:12:11;;;;;;;7.07;1.90;;;19.50;99.90;;;;;;10567300;28;20204;-81
2022/08/22 22:17:33;;;;;;;3.35;2.05;;;19.50;99.90;;;;;;10552873;28;20234;-78
2022/08/22 22:22:54;;;;;;;3.75;1.77;;;19.50;99.90;;;;;;10549115;28;20396;-79
2022/08/22 22:28:38;;;;;;;1.85;1.50;;;19.50;99.90;;;;;;10525791;28;20237;-78
2022/08/22 22:34:00;;;;;;;3.15;1.90;;;19.40;99.90;;;;;;10525350;28;20225;-82
2022/08/22 22:39:21;;;;;;;4.30;2.15;;;19.40;99.90;;;;;;10524947;28;20222;-81
2022/08/22 22:44:42;;;;;;;2.42;1.73;;;19.40;99.90;;;;;;10523964;28;20205;-81
2022/08/22 22:50:05;;;;;;;4.60;1.90;;;19.30;99.90;;;;;;10524906;28;20353;-80
2022/08/22 22:55:27;;;;;;;2.17;1.52;;;19.10;99.90;;;;;;10523888;28;20191;-81
2022/08/22 23:00:48;;;;;;;2.88;1.73;;;19.10;99.90;;;;;;10493985;28;20526;-81
2022/08/22 23:06:11;;;;;;;3.90;1.67;;;19.00;99.90;;;;;;10542914;28;20195;-80
2022/08/22 23:11:33;;;;;;;3.10;1.55;;;19.00;99.90;;;;;;10565946;28;20191;-81
2022/08/22 23:16:56;;;;;;;4.43;2.05;;;19.00;99.90;;;;;;10564778;28;20194;-81
2022/08/22 23:22:18;;;;;;;2.10;1.85;;;19.00;99.90;;;;;;10559774;28;20218;-80
2022/08/22 23:27:40;;;;;;;3.55;2.08;;;18.90;99.90;;;;;;10564329;28;20198;-80
2022/08/22 23:33:01;;;;;;;3.25;1.80;;;18.80;99.90;;;;;;10529755;28;20493;-82
2022/08/22 23:38:23;;;;;;;3.15;1.60;;;18.90;99.90;;;;;;10521666;28;20272;-80
2022/08/22 23:43:48;;;;;;;5.13;1.92;;;18.80;99.90;;;;;;10522562;28;20211;-81
2022/08/22 23:49:10;;;;;;;4.45;1.70;;;18.70;99.90;;;;;;10522412;28;20202;-81
2022/08/22 23:54:31;;;;;;;3.75;2.20;;;18.70;99.90;;;;;;10522492;28;20478;-81
2022/08/22 23:59:52;;;;;;;3.83;2.13;;;18.70;99.90;;;;;;10522047;28;20226;-80
